• Join FlightAware (Why Join?)
  • Login
  • US Flag GB Flag 
20:49 EDT


 

Airport Tracker/Info


-or-


 

Live Flight TrackerFlight Track Log ✈ N6ZQ ✈ 10-Oct-2013 ✈ KBCT - TNCC / CUR

Flight Track Log - Related Links

Times and Time Zones

All times are in EDT time to prevent confusion due to time zone crossing. See the N6ZQ flight status page for this flight to view local times or setup timezone preferences in your user account.

Time Position Orientation Groundspeed Altitude Reporting Facility
EDT Latitude Longitude Course Direction KTS MPH feet Rate Location/Type
07:15 26.4447 -80.0425 98° East 128 147 2,800  Level Miami Center
07:16 26.4767 -80.0131 40° Northeast 128 147 4,000 960 Climbing Miami Center
07:17 26.4839 -79.9717 79° East 128 147 4,800 900 Climbing Miami Center
07:18 26.4975 -79.9208 73° East 151 174 5,800 900 Climbing Miami Center
07:19 26.1201 -79.8783 98° East  Level Estimated
07:19 26.5108 -79.8747 72° East 156 180 6,600  Level Miami Center
07:20 26.5267 -79.8194 72° East 169 194 6,900 120 Climbing Miami Center
07:21 26.5319 -79.7617 84° East 188 216 6,900 600 Level Miami Center
07:22 26.5331 -79.6989 89° East 193 222 8,200 900 Climbing Miami Center
07:23 26.5383 -79.6550 82° East 169 194 8,800 600 Climbing Miami Center
07:24 26.5414 -79.5969 87° East 163 188 9,400 540 Climbing Miami Center
07:25 26.5361 -79.5458 97° East 169 194 9,900 540 Climbing Miami Center
07:26 26.5331 -79.4900 93° East 169 194 10,500 480 Climbing Miami Center
07:27 26.5256 -79.4411 100° East 169 194 10,900 240 Climbing Miami Center
07:28 26.4886 -79.3939 131° Southeast 169 194 11,000  Climbing Miami Center
07:29 26.4517 -79.3581 139° Southeast 194 223 10,900 -60 Descending Miami Center
07:30 26.4067 -79.3086 135° Southeast 201 231 10,900  Level Miami Center
07:31 26.3717 -79.2683 134° Southeast 206 237 10,900  Level Miami Center
07:32 26.3286 -79.2164 133° Southeast 206 237 10,900  Level Miami Center
07:33 26.3003 -79.1742 127° Southeast 206 237 10,900  Level Miami Center
07:34 26.2614 -79.1225 130° Southeast 190 219 10,900  Level Miami Center
07:35 26.2306 -79.0756 126° Southeast 195 224 10,900  Level Miami Center
07:36 26.1958 -79.0308 131° Southeast 190 219 10,900  Level Miami Center
07:37 26.1589 -78.9817 130° Southeast 190 219 10,900  Level Miami Center
07:38 26.1283 -78.9372 127° Southeast 190 219 10,900  Level Miami Center
07:39 26.0892 -78.8878 131° Southeast 190 219 10,900  Level Miami Center
07:40 26.0564 -78.8411 128° Southeast 190 219 10,900  Level Miami Center
07:41 26.0217 -78.7919 128° Southeast 190 219 10,900  Level Miami Center
07:42 25.9844 -78.7428 130° Southeast 195 224 11,000  Climbing Miami Center
07:43 25.9456 -78.6983 134° Southeast 200 230 11,000  Level Miami Center
07:44 25.9128 -78.6469 125° Southeast 200 230 11,000  Level Miami Center
07:45 25.8756 -78.5978 130° Southeast 200 230 11,000  Level Miami Center
07:46 25.8408 -78.5467 127° Southeast 205 236 11,000  Level Miami Center
07:47 25.8078 -78.4978 127° Southeast 205 236 11,000  Level Miami Center
07:48 25.7686 -78.4486 131° Southeast 205 236 11,000  Level Miami Center
07:49 25.7336 -78.3997 128° Southeast 205 236 11,000  Level Miami Center
07:50 25.6964 -78.3531 132° Southeast 205 236 11,000  Level Miami Center
07:51 25.6636 -78.3044 127° Southeast 205 236 11,000  Level Miami Center
07:52 25.6244 -78.2578 133° Southeast 205 236 11,000  Level Miami Center
07:53 25.5914 -78.2067 126° Southeast 205 236 11,000  Level Miami Center
07:54 25.5500 -78.1647 138° Southeast 205 236 11,000  Level Miami Center
07:55 25.5128 -78.1161 130° Southeast 205 236 11,000  Level Miami Center
07:56 25.4775 -78.0672 129° Southeast 205 236 11,000  Level Miami Center
07:57 25.4406 -78.0164 129° Southeast 210 242 11,000  Level Miami Center
07:58 25.4033 -77.9653 129° Southeast 210 242 11,000  Level Miami Center
07:59 25.3681 -77.9167 129° Southeast 210 242 11,000  Level Miami Center
08:00 25.3328 -77.8706 130° Southeast 210 242 11,000  Level Miami Center
08:01 25.2997 -77.8219 127° Southeast 210 242 11,000  Level Miami Center
08:02 25.2644 -77.7733 129° Southeast 210 242 11,000  Level Miami Center
08:03 25.2292 -77.7250 129° Southeast 210 242 11,000  Level Miami Center
08:04 25.1939 -77.6764 129° Southeast 210 242 11,000  Level Miami Center
08:05 25.1586 -77.6303 130° Southeast 210 242 11,000  Level Miami Center
08:06 25.1214 -77.5819 130° Southeast 210 242 11,000  Level Miami Center
08:07 25.0861 -77.5311 127° Southeast 210 242 11,000  Level Miami Center
08:08 25.0486 -77.4828 131° Southeast 210 242 11,000  Level Miami Center
08:09 25.0175 -77.4367 127° Southeast 210 242 11,000  Level Miami Center
08:10 24.9842 -77.3861 126° Southeast 205 236 11,000  Level Miami Center
08:11 24.9508 -77.3356 126° Southeast 200 230 11,000  Level Miami Center
08:12 24.9178 -77.2850 126° Southeast 200 230 11,000  Level Miami Center
08:13 24.8844 -77.2322 125° Southeast 200 230 11,000  Level Miami Center
08:14 24.8531 -77.1842 126° Southeast 200 230 11,000  Level Miami Center
08:15 24.8197 -77.1336 126° Southeast 200 230 11,000  Level Miami Center
08:16 24.7864 -77.0808 125° Southeast 200 230 11,000  Level Miami Center
08:17 24.7511 -77.0281 126° Southeast 200 230 11,000  Level Miami Center
08:18 24.7175 -76.9756 125° Southeast 200 230 11,000  Level Miami Center
08:19 24.6842 -76.9228 125° Southeast 205 236 11,000  Level Miami Center
08:20 24.6486 -76.8725 128° Southeast 205 236 11,000  Level Miami Center
08:21 24.6153 -76.8200 125° Southeast 205 236 11,000  Level Miami Center
08:22 24.5817 -76.7697 126° Southeast 205 236 11,000  Level Miami Center
08:23 24.5483 -76.7150 124° Southeast 200 230 11,000  Level Miami Center
08:24 24.5044 -76.6761 141° Southeast 205 236 11,000  Level Miami Center
08:25 24.4542 -76.6442 150° Southeast 205 236 11,000  Level Miami Center
08:26 24.4081 -76.6056 143° Southeast 205 236 11,000  Level Miami Center
08:27 24.3578 -76.5669 145° Southeast 216 249 11,000  Level Miami Center
08:28 24.3078 -76.5372 152° Southeast 216 249 11,000  Level Miami Center
08:29 24.2658 -76.5078 147° Southeast 211 243 11,000  Level Miami Center
08:30 24.2156 -76.4714 147° Southeast 211 243 11,000  Level Miami Center
08:31 24.1672 -76.4375 147° Southeast 211 243 11,000  Level Miami Center
08:32 24.1172 -76.4036 148° Southeast 211 243 11,000  Level Miami Center
08:33 24.0689 -76.3672 145° Southeast 211 243 11,000  Level Miami Center
08:34 24.0208 -76.3356 149° Southeast 211 243 11,000  Level Miami Center
08:35 23.9725 -76.2994 146° Southeast 211 243 11,000  Level Miami Center
08:36 23.9222 -76.2656 148° Southeast 211 243 11,000  Level Miami Center
08:37 23.8739 -76.2294 146° Southeast 211 243 11,000  Level Miami Center
08:38 23.8236 -76.1956 148° Southeast 211 243 11,000  Level Miami Center
08:39 23.7756 -76.1617 147° Southeast 211 243 11,000  Level Miami Center
08:40 23.7253 -76.1281 149° Southeast 211 243 11,000  Level Miami Center
08:41 23.6769 -76.0919 146° Southeast 206 237 11,000  Level Miami Center
08:42 23.6286 -76.0583 147° Southeast 206 237 11,000  Level Miami Center
08:43 23.5783 -76.0269 150° Southeast 206 237 11,000  Level Miami Center
08:44 23.5300 -75.9931 147° Southeast 206 237 11,000  Level Miami Center
08:45 23.4819 -75.9572 146° Southeast 206 237 11,000  Level Miami Center
08:46 23.4336 -75.9258 149° Southeast 206 237 11,000  Level Miami Center
08:47 23.3853 -75.8900 146° Southeast 206 237 11,000  Level Miami Center
08:48 23.3328 -75.8542 148° Southeast 206 237 11,000  Level Miami Center
08:49 23.2867 -75.8206 146° Southeast 206 237 11,000  Level Miami Center
08:50 23.2361 -75.7894 151° Southeast 206 237 11,000  Level Miami Center
08:51 23.1922 -75.7558 145° Southeast 206 237 11,000  Level Miami Center
08:52 23.1439 -75.7225 148° Southeast 206 237 11,000  Level Miami Center
08:53 23.0956 -75.6911 149° Southeast 206 237 11,000  Level Miami Center
08:54 23.0492 -75.6578 147° Southeast 206 237 11,000  Level Miami Center
08:55 23.0008 -75.6267 149° Southeast 206 237 11,000  Level Miami Center
08:56 22.9525 -75.5933 148° Southeast 206 237 11,000  Level Miami Center
08:57 22.9086 -75.5622 147° Southeast 206 237 11,000  Level Miami Center
08:58 22.8622 -75.5289 146° Southeast 206 237 11,000  Level Miami Center
08:59 22.8139 -75.4978 149° Southeast 206 237 11,000  Level Miami Center
09:00 22.7656 -75.4644 148° Southeast 206 237 11,000  Level Miami Center
09:01 22.7192 -75.4333 148° Southeast 206 237 11,000  Level Miami Center
09:02 22.6708 -75.4003 148° Southeast 206 237 11,000  Level Miami Center
09:03 22.6203 -75.3647 147° Southeast 206 237 11,000  Level Miami Center
09:04 22.5742 -75.3339 148° Southeast 206 237 11,000  Level Miami Center
09:05 22.5258 -75.3006 147° Southeast 206 237 11,000  Level Miami Center
09:06 22.4772 -75.2653 146° Southeast 206 237 11,000  Level Miami Center
09:07 22.4289 -75.2322 148° Southeast 206 237 11,000  Level Miami Center
09:08 22.3847 -75.1944 142° Southeast 206 237 11,000  Level Miami Center
09:09 22.3425 -75.1500 136° Southeast 206 237 11,000  Level Miami Center
09:10 22.3022 -75.1058 135° Southeast 206 237 11,000  Level Miami Center
09:11 22.2642 -75.0592 131° Southeast 206 237 11,000  Level Miami Center
09:12 22.2258 -75.0169 134° Southeast 201 231 11,000  Level Miami Center
09:13 22.1878 -74.9750 134° Southeast 195 224 11,000  Level Miami Center
09:14 22.1497 -74.9353 136° Southeast 195 224 11,000  Level Miami Center
09:15 22.1075 -74.8956 139° Southeast 195 224 11,000  Level Miami Center
09:16 22.0631 -74.8625 145° Southeast 195 224 11,000  Level Miami Center
09:17 22.0147 -74.8275 146° Southeast 200 230 11,000  Level Miami Center
09:18 21.9703 -74.7967 147° Southeast 200 230 11,000  Level Miami Center
09:19 21.9239 -74.7617 145° Southeast 200 230 11,000  Level Miami Center
09:20 21.8817 -74.7242 141° Southeast 195 224 11,000  Level Miami Center
09:21 21.8414 -74.6847 138° Southeast 195 224 11,000  Level Miami Center
09:22 21.8033 -74.6428 134° Southeast 195 224 11,000  Level Miami Center
09:23 21.7669 -74.5942 129° Southeast 195 224 11,000  Level Miami Center
09:24 21.7225 -74.5481 136° Southeast 200 230 11,000  Level Miami Center
09:25 21.6883 -74.5083 133° Southeast 200 230 11,000  Level Miami Center
09:26 21.6503 -74.4644 133° Southeast 200 230 11,000  Level Miami Center
09:27 21.6139 -74.4206 132° Southeast 200 230 11,000  Level Miami Center
09:28 21.5758 -74.3786 134° Southeast 200 230 11,000  Level Miami Center
09:29 21.5353 -74.3369 136° Southeast 200 230 11,000  Level Miami Center
09:30 21.4972 -74.2953 134° Southeast 200 230 11,000  Level Miami Center
09:31 21.4608 -74.2492 130° Southeast 200 230 11,000  Level Miami Center
09:32 21.4203 -74.1989 131° Southeast 200 230 11,000  Level Miami Center
09:33 21.3819 -74.1550 133° Southeast 200 230 11,000  Level Miami Center
09:34 21.3458 -74.1178 136° Southeast 200 230 11,000  Level Miami Center
09:35 21.3011 -74.0675 134° Southeast 205 236 11,000  Level Miami Center
09:36 21.2647 -74.0236 132° Southeast 205 236 11,000  Level Miami Center
09:37 21.2286 -73.9844 135° Southeast 205 236 11,000  Level Miami Center
09:38 21.1903 -73.9450 136° Southeast 200 230 11,000  Level Miami Center
09:39 21.1475 -73.8928 131° Southeast 200 230 11,000  Level Miami Center
09:40 21.1111 -73.8489 132° Southeast 200 230 11,000  Level Miami Center
09:41 21.0728 -73.8053 133° Southeast 200 230 11,000  Level Miami Center
09:42 21.0664 -73.7967 128° Southeast 200 230 11,000  Level Miami Center
09:44 21.0664 -73.7967 110° East 200 230 11,000  Level Miami Center
09:46 21.0664 -73.7967 110° East 200 230 11,000  Level Miami Center
09:48 21.0664 -73.7967 110° East 200 230 11,000  Level Miami Center
09:50 20.6272 -73.5561 153° Southeast 200 230 11,000  Level Miami Center
09:51 20.5806 -73.5194 144° Southeast 200 230 11,000  Level Miami Center
09:52 20.5319 -73.4853 147° Southeast 200 230 11,000  Level Miami Center
09:53 20.4833 -73.4531 148° Southeast 200 230 11,000  Level Miami Center
09:54 20.4344 -73.4211 149° Southeast 206 237 11,000  Level Miami Center
09:55 20.3858 -73.3892 148° Southeast 206 237 11,000  Level Miami Center
09:56 20.3411 -73.3550 144° Southeast 206 237 11,000  Level Miami Center
09:57 20.2903 -73.3208 148° Southeast 212 244 11,000  Level Miami Center
09:58 20.2397 -73.2911 151° Southeast 212 244 11,000  Level Miami Center
09:59 20.1972 -73.2592 145° Southeast 207 238 11,000  Level Miami Center
10:01 20.1296 -73.2144 151° Southeast  Level FlightAware Approximate
10:08 19.7985 -73.0188 151° Southeast  Level FlightAware Approximate
10:09 19.7510 -72.9914 153° Southeast  Level FlightAware Approximate
10:10 19.7029 -72.9650 153° Southeast  Level FlightAware Approximate
10:11 19.6549 -72.9385 153° Southeast  Level FlightAware Approximate
10:12 19.6068 -72.9121 153° Southeast  Level FlightAware Approximate
10:13 19.5588 -72.8858 153° Southeast  Level FlightAware Approximate
10:14 19.5107 -72.8594 153° Southeast  Level FlightAware Approximate
10:15 19.4627 -72.8331 153° Southeast  Level FlightAware Approximate
10:16 19.4146 -72.8067 153° Southeast  Level FlightAware Approximate
10:17 19.3665 -72.7804 153° Southeast  Level FlightAware Approximate
10:18 19.3185 -72.7541 153° Southeast  Level FlightAware Approximate
10:19 19.2704 -72.7278 153° Southeast  Level FlightAware Approximate
10:20 19.2223 -72.7016 153° Southeast  Level FlightAware Approximate
10:21 19.1742 -72.6753 153° Southeast  Level FlightAware Approximate
10:22 19.1261 -72.6491 153° Southeast  Level FlightAware Approximate
10:23 19.0780 -72.6229 153° Southeast  Level FlightAware Approximate
10:24 19.0302 -72.5962 152° Southeast  Level FlightAware Approximate
10:25 18.9824 -72.5694 152° Southeast  Level FlightAware Approximate
10:26 18.9346 -72.5425 152° Southeast  Level FlightAware Approximate
10:27 18.8868 -72.5158 152° Southeast  Level FlightAware Approximate
10:28 18.8390 -72.4890 152° Southeast  Level FlightAware Approximate
10:29 18.7912 -72.4622 152° Southeast  Level FlightAware Approximate
10:30 18.7433 -72.4355 152° Southeast  Level FlightAware Approximate
10:31 18.6955 -72.4088 152° Southeast  Level FlightAware Approximate
10:32 18.6477 -72.3821 153° Southeast  Level FlightAware Approximate
10:33 18.5995 -72.3561 153° Southeast  Level FlightAware Approximate
10:34 18.5513 -72.3302 153° Southeast  Level FlightAware Approximate
10:35 18.5032 -72.3042 153° Southeast  Level FlightAware Approximate
10:36 18.4550 -72.2783 153° Southeast  Level FlightAware Approximate
10:37 18.4081 -72.2498 148° Southeast  Level FlightAware Approximate
10:38 18.3624 -72.2193 148° Southeast  Level FlightAware Approximate
10:39 18.3167 -72.1888 148° Southeast  Level FlightAware Approximate
10:40 18.2710 -72.1584 148° Southeast  Level FlightAware Approximate
10:41 18.2253 -72.1279 148° Southeast  Level FlightAware Approximate
10:42 18.1796 -72.0975 148° Southeast  Level FlightAware Approximate
10:43 18.1339 -72.0670 148° Southeast  Level FlightAware Approximate
10:44 18.0866 -72.0394 151° Southeast  Level FlightAware Approximate
10:45 18.0393 -72.0117 151° Southeast  Level FlightAware Approximate
10:46 17.9920 -71.9842 151° Southeast  Level FlightAware Approximate
10:47 17.9446 -71.9566 151° Southeast  Level FlightAware Approximate
10:48 17.8981 -71.9276 149° Southeast  Level FlightAware Approximate
10:49 17.8519 -71.8981 149° Southeast  Level FlightAware Approximate
10:50 17.8056 -71.8686 149° Southeast  Level FlightAware Approximate
10:51 17.7593 -71.8391 149° Southeast  Level FlightAware Approximate
10:52 17.7131 -71.8097 149° Southeast  Level FlightAware Approximate
10:53 17.6668 -71.7803 149° Southeast  Level FlightAware Approximate
10:54 17.6205 -71.7509 149° Southeast  Level FlightAware Approximate
10:55 17.5742 -71.7215 149° Southeast  Level FlightAware Approximate
10:56 17.5308 -71.6883 150° Southeast  Level FlightAware Approximate
10:57 17.4840 -71.6598 150° Southeast  Level FlightAware Approximate
10:58 17.4373 -71.6313 150° Southeast  Level FlightAware Approximate
10:59 17.3905 -71.6028 150° Southeast  Level FlightAware Approximate
11:00 17.3437 -71.5743 150° Southeast  Level FlightAware Approximate
11:01 17.2969 -71.5458 150° Southeast  Level FlightAware Approximate
11:02 17.2501 -71.5174 150° Southeast  Level FlightAware Approximate
11:03 17.2034 -71.4890 150° Southeast  Level FlightAware Approximate
11:04 17.1566 -71.4604 149° Southeast  Level FlightAware Approximate
11:05 17.1102 -71.4313 149° Southeast  Level FlightAware Approximate
11:06 17.0638 -71.4023 149° Southeast  Level FlightAware Approximate
11:07 17.0173 -71.3733 149° Southeast  Level FlightAware Approximate
11:08 16.9709 -71.3443 149° Southeast  Level FlightAware Approximate
11:09 16.9244 -71.3152 149° Southeast  Level FlightAware Approximate
11:10 16.8779 -71.2864 150° Southeast  Level FlightAware Approximate
11:11 16.8313 -71.2578 150° Southeast  Level FlightAware Approximate
11:12 16.7846 -71.2291 150° Southeast  Level FlightAware Approximate
11:13 16.7380 -71.2005 150° Southeast  Level FlightAware Approximate
11:14 16.6913 -71.1719 150° Southeast  Level FlightAware Approximate
11:15 16.6446 -71.1433 150° Southeast  Level FlightAware Approximate
11:16 16.5980 -71.1148 150° Southeast  Level FlightAware Approximate
11:17 16.5513 -71.0862 150° Southeast  Level FlightAware Approximate
11:18 16.5047 -71.0577 150° Southeast  Level FlightAware Approximate
11:19 16.4580 -71.0291 150° Southeast  Level FlightAware Approximate
11:20 16.4113 -71.0006 150° Southeast  Level FlightAware Approximate
11:21 16.3646 -70.9721 150° Southeast  Level FlightAware Approximate
11:22 16.3179 -70.9436 150° Southeast  Level FlightAware Approximate
11:23 16.2712 -70.9151 150° Southeast  Level FlightAware Approximate
11:24 16.2246 -70.8867 150° Southeast  Level FlightAware Approximate
11:25 16.1779 -70.8582 150° Southeast  Level FlightAware Approximate
11:26 16.1312 -70.8298 150° Southeast  Level FlightAware Approximate
11:27 16.0845 -70.8014 150° Southeast  Level FlightAware Approximate
11:28 16.0378 -70.7729 150° Southeast  Level FlightAware Approximate
11:29 15.9906 -70.7455 155° Southeast  Level FlightAware Approximate
11:30 15.9413 -70.7221 155° Southeast  Level FlightAware Approximate
11:31 15.8921 -70.6988 155° Southeast  Level FlightAware Approximate
11:32 15.8429 -70.6754 155° Southeast  Level FlightAware Approximate
11:33 15.7937 -70.6521 155° Southeast  Level FlightAware Approximate
11:34 15.7445 -70.6288 155° Southeast  Level FlightAware Approximate
11:35 15.6952 -70.6055 155° Southeast  Level FlightAware Approximate
11:36 15.6460 -70.5822 155° Southeast  Level FlightAware Approximate
11:37 15.5968 -70.5589 156° South  Level FlightAware Approximate
11:38 15.5476 -70.5356 156° South  Level FlightAware Approximate
11:39 15.4983 -70.5123 156° South  Level FlightAware Approximate
11:40 15.4491 -70.4891 156° South  Level FlightAware Approximate
11:41 15.3998 -70.4658 156° South  Level FlightAware Approximate
11:42 15.3506 -70.4426 156° South  Level FlightAware Approximate
11:43 15.3013 -70.4193 156° South  Level FlightAware Approximate
11:44 15.2521 -70.3961 156° South  Level FlightAware Approximate
11:45 15.2028 -70.3729 156° South  Level FlightAware Approximate
11:46 15.1536 -70.3497 156° South  Level FlightAware Approximate
11:47 15.1043 -70.3266 156° South  Level FlightAware Approximate
11:48 15.0549 -70.3038 156° South  Level FlightAware Approximate
11:49 15.0054 -70.2813 156° South  Level FlightAware Approximate
11:50 14.9558 -70.2588 156° South  Level FlightAware Approximate
11:51 14.9062 -70.2364 156° South  Level FlightAware Approximate
11:52 14.8567 -70.2139 156° South  Level FlightAware Approximate
11:53 14.8071 -70.1915 156° South  Level FlightAware Approximate
11:54 14.7576 -70.1690 156° South  Level FlightAware Approximate
11:55 14.7080 -70.1466 156° South  Level FlightAware Approximate
11:56 14.6584 -70.1242 156° South  Level FlightAware Approximate
11:57 14.6089 -70.1018 156° South  Level FlightAware Approximate
11:58 14.5593 -70.0794 156° South  Level FlightAware Approximate
11:59 14.5097 -70.0570 156° South  Level FlightAware Approximate
12:00 14.4601 -70.0347 156° South  Level FlightAware Approximate
12:01 14.4106 -70.0123 156° South  Level FlightAware Approximate
12:02 14.3610 -69.9898 156° South  Level FlightAware Approximate
12:03 14.3116 -69.9670 156° South  Level FlightAware Approximate
12:04 14.2622 -69.9443 156° South  Level FlightAware Approximate
12:05 14.2128 -69.9217 156° South  Level FlightAware Approximate
12:06 14.1633 -69.8990 156° South  Level FlightAware Approximate
12:07 14.1139 -69.8763 156° South  Level FlightAware Approximate
12:08 14.0645 -69.8536 156° South  Level FlightAware Approximate
12:09 14.0150 -69.8310 156° South  Level FlightAware Approximate
12:10 13.9656 -69.8083 156° South  Level FlightAware Approximate
12:11 13.9161 -69.7857 156° South  Level FlightAware Approximate
12:12 13.8667 -69.7631 156° South  Level FlightAware Approximate
12:13 13.8173 -69.7405 156° South  Level FlightAware Approximate
12:14 13.7678 -69.7179 156° South  Level FlightAware Approximate
12:15 13.7184 -69.6953 156° South  Level FlightAware Approximate
12:16 13.6689 -69.6727 156° South  Level FlightAware Approximate
12:17 13.6194 -69.6501 156° South  Level FlightAware Approximate
12:18 13.5700 -69.6275 156° South  Level FlightAware Approximate
12:19 13.5205 -69.6050 156° South  Level FlightAware Approximate
12:20 13.4711 -69.5824 156° South  Level FlightAware Approximate
12:21 13.4216 -69.5599 156° South  Level FlightAware Approximate
12:22 13.3722 -69.5374 156° South  Level FlightAware Approximate
12:23 13.3227 -69.5148 156° South  Level FlightAware Approximate
12:24 13.2732 -69.4923 156° South  Level FlightAware Approximate
12:25 13.2237 -69.4698 156° South  Level FlightAware Approximate
12:26 13.1743 -69.4473 156° South  Level FlightAware Approximate
12:27 13.1248 -69.4249 156° South  Level FlightAware Approximate
12:28 13.0753 -69.4024 156° South  Level FlightAware Approximate
12:29 13.0260 -69.3796 154° Southeast  Level FlightAware Approximate
12:30 12.9773 -69.3553 154° Southeast  Level FlightAware Approximate
12:31 12.9287 -69.3310 154° Southeast  Level FlightAware Approximate
12:32 12.8801 -69.3067 154° Southeast  Level FlightAware Approximate
12:33 12.8307 -69.2840 157° South  Level FlightAware Approximate
12:34 12.7811 -69.2619 157° South  Level FlightAware Approximate
12:35 12.7314 -69.2399 157° South  Level FlightAware Approximate
12:36 12.6813 -69.2192 159° South  Level FlightAware Approximate
12:37 12.6309 -69.1990 159° South  Level FlightAware Approximate
12:38 12.5805 -69.1788 159° South  Level FlightAware Approximate
12:39 12.5301 -69.1587 159° South  Level FlightAware Approximate
12:40 12.4797 -69.1385 159° South  Level FlightAware Approximate
12:41 12.4293 -69.1184 159° South  Level FlightAware Approximate
12:42 12.3790 -69.0978 154° Southeast  Level FlightAware Approximate
12:43 12.3304 -69.0735 154° Southeast  Level FlightAware Approximate
12:44 12.2818 -69.0492 154° Southeast  Level FlightAware Approximate
12:45 12.2332 -69.0249 154° Southeast  Level FlightAware Approximate
12:46 12.1846 -69.0006 154° Southeast  Level FlightAware Approximate
12:47 12.1889 -68.9598 71° East  Level Estimated
12:48 12.1889 -68.9598 71° East  Level Estimated
12:49 12.1889 -68.9598 71° East  Level Estimated
12:50 12.1889 -68.9598 71° East  Level Estimated
12:51 12.1889 -68.9598 71° East  Level Estimated
12:52 12.1889 -68.9598 71° East  Level Estimated
12:53 12.1889 -68.9598 71° East  Level Estimated
12:54 12.1889 -68.9598 71° East  Level Estimated
12:55 12.1889 -68.9598 71° East  Level Estimated
12:56 12.1889 -68.9598 71° East  Level Estimated
12:57 12.1889 -68.9598 71° East  Level Estimated
12:58 12.1889 -68.9598 71° East  Level Estimated
12:59 12.1889 -68.9598 71° East  Level Estimated
13:00 12.1889 -68.9598 71° East  Level Estimated
13:01 12.1889 -68.9598 71° East  Level Estimated
13:02 12.1889 -68.9598 71° East  Level Estimated
13:03 12.1889 -68.9598 71° East  Level Estimated
13:04 12.1889 -68.9598 71° East  Level Estimated
13:05 12.1889 -68.9598 71° East  Level Estimated
13:06 12.1889 -68.9598 71° East  Level Estimated
13:07 12.1889 -68.9598 71° East  Level Estimated